createdAt,value
2019-04-14T00:02:14.180Z,948.65
2019-04-14T00:04:40.147Z,948.59
2019-04-14T00:07:06.387Z,948.57
2019-04-14T00:09:33.703Z,948.57
2019-04-14T00:11:59.119Z,948.56
2019-04-14T00:14:25.367Z,948.54
2019-04-14T00:16:51.671Z,948.55
2019-04-14T00:19:17.985Z,948.50
2019-04-14T00:21:45.371Z,948.47
2019-04-14T00:24:11.575Z,948.37
2019-04-14T00:26:37.928Z,948.38
2019-04-14T00:29:04.466Z,948.33
2019-04-14T00:31:30.723Z,948.29
2019-04-14T00:33:56.353Z,948.27
2019-04-14T00:36:22.260Z,948.29
2019-04-14T00:38:49.652Z,948.29
2019-04-14T00:41:15.917Z,948.24
2019-04-14T00:43:41.726Z,948.27
2019-04-14T00:46:07.955Z,948.20
2019-04-14T00:48:34.205Z,948.21
2019-04-14T00:51:00.568Z,948.23
2019-04-14T00:53:27.474Z,948.20
2019-04-14T00:55:53.328Z,948.23
2019-04-14T00:58:19.272Z,948.23
2019-04-14T01:00:45.610Z,948.21
2019-04-14T01:03:11.933Z,948.22
2019-04-14T01:05:39.261Z,948.23
2019-04-14T01:08:05.268Z,948.21
2019-04-14T01:10:32.104Z,948.12
2019-04-14T01:12:58.180Z,948.23
2019-04-14T01:15:24.579Z,948.17
2019-04-14T01:17:50.648Z,948.18
2019-04-14T01:20:16.724Z,948.19
2019-04-14T01:22:42.566Z,948.18
2019-04-14T01:25:08.882Z,948.20
2019-04-14T01:27:36.254Z,948.21
2019-04-14T01:30:02.680Z,948.19
2019-04-14T01:32:28.345Z,948.20
2019-04-14T01:34:55.471Z,948.19
2019-04-14T01:37:20.480Z,948.27
2019-04-14T01:39:48.093Z,948.17
2019-04-14T01:42:13.800Z,948.17
2019-04-14T01:44:39.611Z,948.20
2019-04-14T01:47:05.737Z,948.15
2019-04-14T01:49:32.989Z,948.15
2019-04-14T01:51:59.225Z,948.14
2019-04-14T01:54:25.670Z,948.13
2019-04-14T01:56:51.407Z,948.16
2019-04-14T01:59:17.390Z,948.21
2019-04-14T02:01:44.095Z,948.14
2019-04-14T02:04:10.031Z,948.14
2019-04-14T02:06:37.426Z,948.15
2019-04-14T02:09:03.288Z,948.10
2019-04-14T02:11:29.254Z,948.16
2019-04-14T02:13:55.293Z,948.05
2019-04-14T02:16:32.267Z,948.11
2019-04-14T02:18:50.623Z,948.13
2019-04-14T02:21:14.952Z,948.14
2019-04-14T02:23:41.144Z,948.07
2019-04-14T02:26:07.021Z,948.07
2019-04-14T02:28:33.243Z,948.08
2019-04-14T02:31:13.444Z,948.06
2019-04-14T02:33:55.203Z,948.07
2019-04-14T02:36:28.016Z,948.02
2019-04-14T02:38:49.022Z,948.02
2019-04-14T02:43:45.380Z,947.94
2019-04-14T02:50:56.263Z,947.96
2019-04-14T02:53:30.820Z,947.98
2019-04-14T02:55:49.155Z,947.92
2019-04-14T02:58:21.844Z,947.93
2019-04-14T03:00:45.639Z,947.95
2019-04-14T03:03:10.880Z,948.02
2019-04-14T03:05:37.233Z,948.01
2019-04-14T03:08:04.293Z,948.00
2019-04-14T03:10:31.999Z,948.06
2019-04-14T03:13:01.153Z,948.11
2019-04-14T03:15:27.978Z,948.13
2019-04-14T03:17:47.365Z,948.11
2019-04-14T03:20:27.970Z,948.17
2019-04-14T03:22:51.770Z,948.18
2019-04-14T03:24:50.379Z,948.13
2019-04-14T03:27:45.720Z,948.16
2019-04-14T03:30:05.024Z,948.17
2019-04-14T03:35:03.651Z,948.20
2019-04-14T03:37:39.521Z,948.24
2019-04-14T03:42:13.251Z,948.21
2019-04-14T03:44:37.604Z,948.17
2019-04-14T03:49:32.240Z,948.17
2019-04-14T03:51:59.575Z,948.19
2019-04-14T03:54:15.889Z,948.22
2019-04-14T03:56:21.638Z,948.22
2019-04-14T03:58:48.603Z,948.18
2019-04-14T04:01:15.005Z,948.21
2019-04-14T04:03:41.350Z,948.28
2019-04-14T04:06:07.469Z,948.30
2019-04-14T04:08:33.377Z,948.33
2019-04-14T04:10:59.807Z,948.31
2019-04-14T04:13:25.937Z,948.30
2019-04-14T04:15:52.001Z,948.34
2019-04-14T04:18:18.072Z,948.32
2019-04-14T04:20:45.522Z,948.42
2019-04-14T04:23:11.742Z,948.42
2019-04-14T04:25:37.855Z,948.38
2019-04-14T04:28:03.755Z,948.42
2019-04-14T04:30:29.797Z,948.39
2019-04-14T04:32:56.010Z,948.44
2019-04-14T04:35:22.318Z,948.40
2019-04-14T04:37:49.740Z,948.39
2019-04-14T04:40:15.738Z,948.39
2019-04-14T04:42:41.638Z,948.44
2019-04-14T04:45:08.143Z,948.48
2019-04-14T04:47:33.960Z,948.47
2019-04-14T04:50:00.293Z,948.51
2019-04-14T04:52:26.598Z,948.49
2019-04-14T04:54:53.826Z,948.37
2019-04-14T04:57:19.921Z,948.46
2019-04-14T04:59:45.580Z,948.49
2019-04-14T05:02:11.913Z,948.49
2019-04-14T05:04:39.386Z,948.52
2019-04-14T05:07:05.615Z,948.53
2019-04-14T05:09:31.616Z,948.55
2019-04-14T05:11:57.788Z,948.44
2019-04-14T05:14:24.047Z,948.50
2019-04-14T05:16:50.751Z,948.47
2019-04-14T05:19:23.609Z,948.49
2019-04-14T05:21:43.066Z,948.52
2019-04-14T05:24:09.268Z,948.51
2019-04-14T05:26:35.215Z,948.51
2019-04-14T05:29:01.576Z,948.54
2019-04-14T05:31:29.115Z,948.55
2019-04-14T05:33:55.237Z,948.50
2019-04-14T05:36:21.442Z,948.49
2019-04-14T05:38:47.440Z,948.49
2019-04-14T05:41:13.692Z,948.52
2019-04-14T05:43:48.208Z,948.48
2019-04-14T05:46:05.826Z,948.52
2019-04-14T05:48:32.162Z,948.49
2019-04-14T05:50:59.771Z,948.55
2019-04-14T05:53:26.136Z,948.50
2019-04-14T05:55:52.425Z,948.52
2019-04-14T05:58:18.497Z,948.63
2019-04-14T06:00:43.828Z,948.54
2019-04-14T06:03:10.347Z,948.49
2019-04-14T06:05:36.510Z,948.56
2019-04-14T06:08:02.801Z,948.59
2019-04-14T06:10:29.125Z,948.58
2019-04-14T06:12:55.446Z,948.59
2019-04-14T06:15:21.808Z,948.61
2019-04-14T06:17:48.141Z,948.58
2019-04-14T06:20:14.479Z,948.55
2019-04-14T06:22:40.795Z,948.59
2019-04-14T06:25:07.121Z,948.64
2019-04-14T06:27:33.451Z,948.62
2019-04-14T06:29:59.752Z,948.63
2019-04-14T06:32:26.058Z,948.68
2019-04-14T06:34:52.380Z,948.72
2019-04-14T06:37:18.701Z,948.70
2019-04-14T06:39:45.024Z,948.74
2019-04-14T06:42:11.335Z,948.71
2019-04-14T06:44:37.636Z,948.71
2019-04-14T06:47:03.972Z,948.79
2019-04-14T06:49:30.294Z,948.78
2019-04-14T06:51:56.618Z,948.81
2019-04-14T06:54:22.937Z,948.80
2019-04-14T06:56:49.252Z,948.82
2019-04-14T06:59:15.648Z,948.77
2019-04-14T07:01:41.966Z,948.84
2019-04-14T07:04:08.297Z,948.82
2019-04-14T07:06:34.622Z,948.81
2019-04-14T07:09:00.942Z,948.80
2019-04-14T07:11:27.332Z,948.83
2019-04-14T07:13:53.655Z,948.83
2019-04-14T07:16:19.979Z,948.88
2019-04-14T07:18:46.314Z,948.86
2019-04-14T07:21:12.644Z,948.80
2019-04-14T07:23:38.947Z,948.91
2019-04-14T07:26:05.282Z,948.92
2019-04-14T07:28:31.613Z,948.89
2019-04-14T07:30:57.937Z,948.83
2019-04-14T07:33:24.250Z,948.87
2019-04-14T07:35:50.583Z,948.87
2019-04-14T07:38:16.889Z,948.71
2019-04-14T07:40:43.211Z,948.86
2019-04-14T07:43:09.536Z,948.85
2019-04-14T07:45:35.863Z,948.88
2019-04-14T07:48:02.181Z,948.87
2019-04-14T07:50:28.506Z,948.84
2019-04-14T07:52:54.832Z,948.85
2019-04-14T07:55:21.165Z,948.82
2019-04-14T07:57:47.495Z,948.77
2019-04-14T08:00:13.843Z,948.79
2019-04-14T08:02:40.188Z,948.82
2019-04-14T08:05:06.487Z,948.82
2019-04-14T08:07:32.812Z,948.81
2019-04-14T08:09:59.130Z,948.81
2019-04-14T08:12:25.487Z,948.76
2019-04-14T08:14:51.817Z,948.76
2019-04-14T08:17:18.144Z,948.71
2019-04-14T08:19:44.467Z,948.69
2019-04-14T08:22:10.796Z,948.70
2019-04-14T08:24:37.129Z,948.72
2019-04-14T08:27:03.438Z,948.71
2019-04-14T08:29:29.762Z,948.72
2019-04-14T08:31:56.085Z,948.67
2019-04-14T08:34:22.415Z,948.59
2019-04-14T08:36:48.733Z,948.58
2019-04-14T08:39:15.031Z,948.57
2019-04-14T08:41:41.399Z,948.55
2019-04-14T08:44:07.744Z,948.53
2019-04-14T08:46:34.069Z,948.47
2019-04-14T08:49:00.736Z,948.46
2019-04-14T08:51:27.074Z,948.45
2019-04-14T08:53:53.400Z,948.44
2019-04-14T08:56:19.713Z,948.40
2019-04-14T08:58:46.020Z,948.42
2019-04-14T09:01:12.363Z,948.47
2019-04-14T09:03:38.709Z,948.43
2019-04-14T09:06:05.031Z,948.45
2019-04-14T09:08:31.339Z,948.45
2019-04-14T09:10:57.664Z,948.45
2019-04-14T09:13:23.981Z,948.39
2019-04-14T09:15:50.285Z,948.37
2019-04-14T09:18:16.647Z,948.43
2019-04-14T09:20:52.129Z,948.38
2019-04-14T09:23:09.224Z,948.34
2019-04-14T09:25:35.553Z,948.38
2019-04-14T09:28:01.881Z,948.40
2019-04-14T09:30:28.215Z,948.38
2019-04-14T09:32:54.539Z,948.38
2019-04-14T09:35:20.862Z,948.36
2019-04-14T09:37:47.194Z,948.29
2019-04-14T09:40:13.528Z,948.42
2019-04-14T09:42:39.836Z,948.37
2019-04-14T09:45:06.194Z,948.45
2019-04-14T09:47:32.529Z,948.32
2019-04-14T09:49:58.872Z,948.43
2019-04-14T09:52:25.194Z,948.39
2019-04-14T09:54:51.499Z,948.34
2019-04-14T09:57:17.853Z,948.32
2019-04-14T09:59:44.177Z,948.29
2019-04-14T10:02:10.490Z,948.31
2019-04-14T10:04:36.821Z,948.30
2019-04-14T10:07:03.143Z,948.30
2019-04-14T10:09:29.469Z,948.21
2019-04-14T10:11:56.513Z,948.18
2019-04-14T10:14:22.270Z,948.17
2019-04-14T10:16:48.563Z,948.14
2019-04-14T10:19:14.877Z,948.18
2019-04-14T10:21:41.191Z,948.24
2019-04-14T10:24:07.535Z,948.24
2019-04-14T10:26:33.903Z,948.25
2019-04-14T10:29:00.223Z,948.22
2019-04-14T10:31:26.546Z,948.24
2019-04-14T10:33:52.866Z,948.21
2019-04-14T10:36:19.296Z,948.16
2019-04-14T10:38:45.753Z,948.22
2019-04-14T10:41:12.653Z,948.25
2019-04-14T10:43:39.138Z,948.29
2019-04-14T10:46:05.474Z,948.18
2019-04-14T10:48:31.866Z,948.28
2019-04-14T10:50:58.622Z,948.26
2019-04-14T10:53:25.132Z,948.22
2019-04-14T10:55:51.744Z,948.28
2019-04-14T10:58:18.256Z,948.25
2019-04-14T11:00:44.692Z,948.25
2019-04-14T11:03:11.548Z,948.25
2019-04-14T11:05:38.199Z,948.21
2019-04-14T11:08:04.760Z,948.21
2019-04-14T11:10:31.460Z,948.29
2019-04-14T11:12:58.661Z,948.28
2019-04-14T11:15:25.029Z,948.21
2019-04-14T11:17:51.471Z,948.23
2019-04-14T11:20:18.103Z,948.41
2019-04-14T11:22:44.609Z,948.30
2019-04-14T11:25:11.205Z,948.36
2019-04-14T11:27:37.643Z,948.40
2019-04-14T11:30:03.975Z,948.32
2019-04-14T11:32:30.590Z,948.36
2019-04-14T11:34:57.159Z,948.37
2019-04-14T11:37:23.655Z,948.31
2019-04-14T11:39:50.399Z,948.31
2019-04-14T11:42:16.881Z,948.32
2019-04-14T11:44:43.841Z,948.29
2019-04-14T11:47:10.228Z,948.30
2019-04-14T11:49:36.607Z,948.22
2019-04-14T11:52:04.630Z,948.26
2019-04-14T11:54:30.931Z,948.25
2019-04-14T11:56:57.257Z,948.23
2019-04-14T11:59:23.611Z,948.27
2019-04-14T12:01:49.957Z,948.26
2019-04-14T12:04:16.264Z,948.18
2019-04-14T12:06:42.568Z,948.19
2019-04-14T12:09:08.962Z,948.18
2019-04-14T12:11:35.291Z,948.13
2019-04-14T12:14:01.642Z,948.19
2019-04-14T12:16:27.968Z,948.21
2019-04-14T12:18:54.287Z,948.16
2019-04-14T12:21:20.602Z,948.13
2019-04-14T12:23:46.922Z,948.08
2019-04-14T12:26:13.248Z,948.06
2019-04-14T12:28:40.468Z,948.08
2019-04-14T12:31:06.529Z,948.01
2019-04-14T12:33:32.229Z,948.05
2019-04-14T12:35:58.586Z,948.01
2019-04-14T12:38:24.911Z,947.98
2019-04-14T12:40:52.342Z,947.99
2019-04-14T12:43:17.545Z,947.91
2019-04-14T12:45:43.865Z,947.88
2019-04-14T12:48:10.192Z,947.88
2019-04-14T12:50:36.496Z,947.86
2019-04-14T12:53:02.825Z,947.80
2019-04-14T12:55:29.116Z,947.80
2019-04-14T12:57:55.436Z,947.82
2019-04-14T13:00:21.767Z,947.78
2019-04-14T13:02:48.095Z,947.75
2019-04-14T13:05:14.403Z,947.79
2019-04-14T13:07:40.731Z,947.76
2019-04-14T13:10:07.060Z,947.69
2019-04-14T13:12:33.365Z,947.75
2019-04-14T13:15:02.673Z,947.72
2019-04-14T13:17:26.008Z,947.69
2019-04-14T13:19:52.341Z,947.74
2019-04-14T13:22:18.667Z,947.69
2019-04-14T13:24:44.985Z,947.73
2019-04-14T13:27:11.351Z,947.72
2019-04-14T13:29:37.682Z,947.71
2019-04-14T13:32:03.999Z,947.71
2019-04-14T13:34:30.336Z,947.72
2019-04-14T13:36:56.661Z,947.71
2019-04-14T13:39:22.991Z,947.70
2019-04-14T13:41:49.297Z,947.71
2019-04-14T13:44:15.673Z,947.71
2019-04-14T13:46:42.005Z,947.75
2019-04-14T13:49:08.326Z,947.79
2019-04-14T13:51:34.634Z,947.66
2019-04-14T13:54:00.961Z,947.71
2019-04-14T13:56:27.264Z,947.83
2019-04-14T13:58:53.616Z,947.78
2019-04-14T14:01:19.915Z,947.76
2019-04-14T14:03:46.243Z,947.88
2019-04-14T14:06:12.567Z,947.83
2019-04-14T14:08:38.937Z,947.87
2019-04-14T14:11:05.205Z,947.89
2019-04-14T14:13:31.514Z,947.85
2019-04-14T14:15:57.829Z,947.87
2019-04-14T14:18:24.162Z,947.88
2019-04-14T14:20:50.498Z,947.88
2019-04-14T14:23:16.816Z,947.92
2019-04-14T14:25:43.166Z,947.96
2019-04-14T14:28:09.475Z,947.97
2019-04-14T14:30:35.809Z,947.95
2019-04-14T14:33:02.135Z,947.96
2019-04-14T14:35:28.474Z,947.98
2019-04-14T14:37:54.810Z,947.96
2019-04-14T14:40:21.152Z,947.98
2019-04-14T14:42:47.484Z,947.94
2019-04-14T14:45:13.796Z,948.01
2019-04-14T14:47:40.143Z,947.90
2019-04-14T14:50:06.474Z,948.02
2019-04-14T14:52:32.820Z,947.88
2019-04-14T14:54:59.130Z,948.01
2019-04-14T14:57:25.446Z,948.03
2019-04-14T14:59:51.795Z,948.12
2019-04-14T15:02:18.096Z,948.10
2019-04-14T15:04:44.405Z,948.07
2019-04-14T15:07:10.718Z,948.12
2019-04-14T15:09:37.046Z,948.17
2019-04-14T15:12:03.376Z,948.19
2019-04-14T15:14:29.735Z,948.22
2019-04-14T15:16:56.039Z,948.25
2019-04-14T15:19:22.384Z,948.20
2019-04-14T15:21:48.674Z,948.25
2019-04-14T15:24:14.984Z,948.29
2019-04-14T15:26:41.299Z,948.31
2019-04-14T15:29:07.633Z,948.30
2019-04-14T15:31:33.955Z,948.31
2019-04-14T15:34:00.276Z,948.25
2019-04-14T15:36:26.641Z,948.32
2019-04-14T15:38:52.963Z,948.28
2019-04-14T15:41:19.275Z,948.36
2019-04-14T15:43:45.579Z,948.36
2019-04-14T15:46:11.911Z,948.37
2019-04-14T15:48:38.237Z,948.40
2019-04-14T15:51:04.558Z,948.37
2019-04-14T15:53:37.762Z,948.42
2019-04-14T15:55:57.234Z,948.40
2019-04-14T15:58:23.561Z,948.39
2019-04-14T16:00:49.882Z,948.52
2019-04-14T16:03:16.188Z,948.44
2019-04-14T16:05:43.709Z,948.41
2019-04-14T16:08:08.838Z,948.44
2019-04-14T16:10:35.165Z,948.51
2019-04-14T16:13:02.698Z,948.53
2019-04-14T16:15:29.013Z,948.49
2019-04-14T16:17:55.346Z,948.48
2019-04-14T16:20:21.705Z,948.50
2019-04-14T16:22:48.025Z,948.50
2019-04-14T16:25:14.346Z,948.54
2019-04-14T16:27:40.659Z,948.60
2019-04-14T16:30:06.985Z,948.58
2019-04-14T16:32:33.307Z,948.72
2019-04-14T16:34:59.608Z,948.70
2019-04-14T16:37:25.973Z,948.73
2019-04-14T16:39:52.296Z,948.71
2019-04-14T16:42:18.748Z,948.82
2019-04-14T16:44:45.078Z,948.72
2019-04-14T16:47:11.398Z,948.78
2019-04-14T16:49:37.803Z,948.85
2019-04-14T16:52:07.206Z,948.85
2019-04-14T16:54:33.539Z,948.94
2019-04-14T16:56:59.889Z,948.99
2019-04-14T16:59:26.230Z,948.94
2019-04-14T17:01:52.540Z,948.92
2019-04-14T17:04:18.929Z,948.99
2019-04-14T17:06:45.233Z,948.99
2019-04-14T17:09:11.541Z,949.00
2019-04-14T17:11:37.847Z,949.01
2019-04-14T17:14:04.247Z,949.03
2019-04-14T17:16:30.606Z,949.04
2019-04-14T17:18:56.938Z,949.06
2019-04-14T17:21:23.472Z,949.05
2019-04-14T17:23:49.818Z,949.11
2019-04-14T17:26:16.236Z,949.22
2019-04-14T17:28:42.558Z,949.15
2019-04-14T17:31:09.091Z,949.23
2019-04-14T17:33:35.423Z,949.26
2019-04-14T17:36:01.732Z,949.34
2019-04-14T17:38:28.096Z,949.32
2019-04-14T17:40:54.410Z,949.34
2019-04-14T17:43:20.753Z,949.33
2019-04-14T17:45:47.104Z,949.35
2019-04-14T17:48:13.428Z,949.33
2019-04-14T17:50:40.824Z,949.35
2019-04-14T17:53:06.075Z,949.41
2019-04-14T17:55:32.406Z,949.44
2019-04-14T17:57:58.716Z,949.46
2019-04-14T18:00:25.063Z,949.46
2019-04-14T18:02:51.380Z,949.42
2019-04-14T18:05:17.685Z,949.51
2019-04-14T18:07:44.003Z,949.54
2019-04-14T18:10:10.318Z,949.61
2019-04-14T18:12:36.650Z,949.57
2019-04-14T18:15:02.986Z,949.63
2019-04-14T18:17:29.307Z,949.57
2019-04-14T18:19:55.618Z,949.62
2019-04-14T18:22:21.947Z,949.61
2019-04-14T18:24:48.253Z,949.65
2019-04-14T18:27:14.627Z,949.68
2019-04-14T18:29:40.965Z,949.70
2019-04-14T18:32:07.284Z,949.71
2019-04-14T18:37:14.078Z,949.74
2019-04-14T18:39:40.485Z,949.79
2019-04-14T18:42:06.796Z,949.69
2019-04-14T18:44:37.147Z,949.75
2019-04-14T18:47:15.020Z,949.76
2019-04-14T18:49:43.710Z,949.79
2019-04-14T18:52:17.408Z,949.84
2019-04-14T18:54:54.407Z,949.80
2019-04-14T18:57:19.054Z,949.84
2019-04-14T18:59:45.483Z,949.87
2019-04-14T19:02:11.794Z,949.87
2019-04-14T19:04:38.335Z,949.82
2019-04-14T19:09:39.898Z,949.93
2019-04-14T19:12:06.232Z,949.92
2019-04-14T19:14:32.536Z,949.90
2019-04-14T19:16:58.874Z,949.95
2019-04-14T19:19:25.200Z,949.93
2019-04-14T19:21:51.543Z,949.95
2019-04-14T19:24:17.874Z,950.01
2019-04-14T19:26:44.198Z,950.04
2019-04-14T19:29:10.509Z,950.05
2019-04-14T19:31:36.839Z,950.02
2019-04-14T19:34:03.195Z,949.99
2019-04-14T19:36:29.531Z,949.99
2019-04-14T19:38:55.849Z,950.04
2019-04-14T19:41:22.174Z,949.99
2019-04-14T19:43:48.481Z,950.06
2019-04-14T19:46:14.806Z,950.06
2019-04-14T19:48:41.135Z,950.02
2019-04-14T19:51:07.464Z,950.04
2019-04-14T19:53:33.786Z,950.00
2019-04-14T19:56:00.134Z,949.98
2019-04-14T19:58:26.455Z,950.01
2019-04-14T20:00:52.782Z,950.03
2019-04-14T20:03:19.109Z,950.04
2019-04-14T20:05:45.438Z,950.07
2019-04-14T20:08:11.744Z,950.09
2019-04-14T20:10:38.070Z,950.10
2019-04-14T20:13:04.412Z,950.19
2019-04-14T20:15:30.724Z,950.15
2019-04-14T20:17:57.042Z,950.10
2019-04-14T20:20:23.355Z,950.15
2019-04-14T20:22:49.648Z,950.15
2019-04-14T20:25:15.975Z,950.17
2019-04-14T20:27:42.275Z,950.18
2019-04-14T20:30:08.588Z,950.19
2019-04-14T20:32:34.910Z,950.18
2019-04-14T20:35:01.215Z,950.20
2019-04-14T20:37:27.536Z,950.25
2019-04-14T20:39:53.846Z,950.24
2019-04-14T20:42:20.153Z,950.23
2019-04-14T20:44:46.468Z,950.20
2019-04-14T20:47:12.794Z,950.18
2019-04-14T20:49:39.120Z,950.14
2019-04-14T20:52:05.446Z,950.25
2019-04-14T20:54:34.268Z,950.27
2019-04-14T20:57:00.618Z,950.24
2019-04-14T20:59:26.957Z,950.24
2019-04-14T21:01:53.276Z,950.27
2019-04-14T21:04:19.599Z,950.27
2019-04-14T21:06:45.895Z,950.29
2019-04-14T21:09:12.224Z,950.32
2019-04-14T21:11:38.540Z,950.30
2019-04-14T21:14:04.865Z,950.30
2019-04-14T21:16:31.167Z,950.32
2019-04-14T21:18:57.500Z,950.35
2019-04-14T21:21:23.803Z,950.25
2019-04-14T21:23:50.130Z,950.30
2019-04-14T21:26:16.457Z,950.31
2019-04-14T21:28:42.953Z,950.31
2019-04-14T21:31:09.272Z,950.32
2019-04-14T21:33:35.594Z,950.27
2019-04-14T21:36:01.910Z,950.39
2019-04-14T21:38:28.229Z,950.38
2019-04-14T21:40:54.588Z,950.39
2019-04-14T21:43:20.911Z,950.42
2019-04-14T21:45:47.292Z,950.35
2019-04-14T21:48:13.553Z,950.37
2019-04-14T21:50:39.876Z,950.33
2019-04-14T21:53:06.205Z,950.32
2019-04-14T21:55:32.512Z,950.32
2019-04-14T21:57:58.855Z,950.40
2019-04-14T22:00:25.164Z,950.43
2019-04-14T22:02:51.497Z,950.35
2019-04-14T22:05:17.803Z,950.37
2019-04-14T22:07:44.121Z,950.42
2019-04-14T22:10:10.462Z,950.39
2019-04-14T22:12:36.833Z,950.36
2019-04-14T22:15:03.138Z,950.41
2019-04-14T22:17:29.456Z,950.39
2019-04-14T22:19:55.765Z,950.35
2019-04-14T22:22:22.093Z,950.32
2019-04-14T22:24:50.952Z,950.29
2019-04-14T22:27:14.855Z,950.34
2019-04-14T22:29:41.180Z,950.34
2019-04-14T22:32:07.474Z,950.30
2019-04-14T22:34:33.813Z,950.29
2019-04-14T22:37:00.200Z,950.32
2019-04-14T22:39:26.507Z,950.32
2019-04-14T22:41:52.902Z,950.29
2019-04-14T22:44:19.227Z,950.27
2019-04-14T22:46:45.547Z,950.24
2019-04-14T22:49:11.898Z,950.26
2019-04-14T22:51:38.210Z,950.30
2019-04-14T22:54:04.595Z,950.27
2019-04-14T22:56:39.263Z,950.26
2019-04-14T22:58:57.149Z,950.23
2019-04-14T23:01:23.470Z,950.21
2019-04-14T23:03:49.796Z,950.23
2019-04-14T23:06:16.125Z,950.22
2019-04-14T23:08:42.446Z,950.19
2019-04-14T23:11:08.777Z,950.21
2019-04-14T23:13:35.100Z,950.20
2019-04-14T23:16:01.398Z,950.17
2019-04-14T23:18:27.708Z,950.19
2019-04-14T23:20:54.041Z,950.24
2019-04-14T23:23:20.366Z,950.24
2019-04-14T23:25:46.679Z,950.20
2019-04-14T23:28:13.002Z,950.24
2019-04-14T23:30:39.308Z,950.21
2019-04-14T23:33:05.643Z,950.18
2019-04-14T23:35:31.959Z,950.25
2019-04-14T23:37:58.261Z,950.27
2019-04-14T23:40:24.606Z,950.30
2019-04-14T23:42:50.903Z,950.24
2019-04-14T23:45:17.232Z,950.24
2019-04-14T23:47:43.549Z,950.25
2019-04-14T23:50:09.873Z,950.18
2019-04-14T23:52:36.198Z,950.19
2019-04-14T23:55:02.515Z,950.20
2019-04-14T23:57:28.847Z,950.12
2019-04-14T23:59:55.149Z,950.14
